createdAt,value
2023-03-11T00:01:00.396Z,0.09
2023-03-11T00:01:09.116Z,0.09
2023-03-11T00:02:09.768Z,0.09
2023-03-11T00:03:10.273Z,0.09
2023-03-11T00:04:10.854Z,0.09
2023-03-11T00:05:11.449Z,0.09
2023-03-11T00:06:11.572Z,0.09
2023-03-11T00:07:12.122Z,0.09
2023-03-11T00:08:12.320Z,0.13
2023-03-11T00:09:12.937Z,0.09
2023-03-11T00:10:13.431Z,0.09
2023-03-11T00:11:14.052Z,0.09
2023-03-11T00:12:14.694Z,0.09
2023-03-11T00:13:15.310Z,0.09
2023-03-11T00:14:15.372Z,0.09
2023-03-11T00:15:16.434Z,0.09
2023-03-11T00:16:16.329Z,0.09
2023-03-11T00:17:16.621Z,0.09
2023-03-11T00:18:17.072Z,0.09
2023-03-11T00:19:18.633Z,0.09
2023-03-11T00:20:18.226Z,0.13
2023-03-11T00:21:18.902Z,0.09
2023-03-11T00:22:19.670Z,0.09
2023-03-11T00:23:21.546Z,0.13
2023-03-11T00:24:21.072Z,0.09
2023-03-11T00:25:21.860Z,0.09
2023-03-11T00:26:22.513Z,0.13
2023-03-11T00:27:24.308Z,0.09
2023-03-11T00:28:23.902Z,0.09
2023-03-11T00:29:25.408Z,0.09
2023-03-11T00:30:25.226Z,0.13
2023-03-11T00:31:25.279Z,0.13
2023-03-11T00:32:26.196Z,0.09
2023-03-11T00:33:26.238Z,0.09
2023-03-11T00:34:26.766Z,0.09
2023-03-11T00:34:35.488Z,0.09
2023-03-11T00:35:35.985Z,0.09
2023-03-11T00:36:36.656Z,0.09
2023-03-11T00:37:37.266Z,0.13
2023-03-11T00:38:38.065Z,0.09
2023-03-11T00:39:38.380Z,0.09
2023-03-11T00:40:38.995Z,0.09
2023-03-11T00:41:39.542Z,0.09
2023-03-11T00:42:40.136Z,0.13
2023-03-11T00:43:40.737Z,0.09
2023-03-11T00:44:41.324Z,0.09
2023-03-11T00:45:41.922Z,0.13
2023-03-11T00:46:42.381Z,0.09
2023-03-11T00:47:42.799Z,0.09
2023-03-11T00:48:43.458Z,0.09
2023-03-11T00:49:43.975Z,0.13
2023-03-11T00:50:44.602Z,0.09
2023-03-11T00:51:45.096Z,0.09
2023-03-11T00:52:45.823Z,0.13
2023-03-11T00:53:46.621Z,0.09
2023-03-11T00:54:47.102Z,0.09
2023-03-11T00:55:47.783Z,0.09
2023-03-11T00:56:48.295Z,0.13
2023-03-11T00:57:48.814Z,0.16
2023-03-11T00:58:49.473Z,0.09
2023-03-11T00:59:50.370Z,0.09
2023-03-11T01:00:50.899Z,0.09
2023-03-11T01:01:51.324Z,0.09
2023-03-11T01:02:52.001Z,0.09
2023-03-11T01:03:52.136Z,0.09
2023-03-11T01:04:52.969Z,0.09
2023-03-11T01:05:53.609Z,0.09
2023-03-11T01:06:54.261Z,0.09
2023-03-11T01:07:54.998Z,0.09
2023-03-11T01:08:55.448Z,0.09
2023-03-11T01:09:04.168Z,0.09
2023-03-11T01:10:04.786Z,0.09
2023-03-11T01:11:05.410Z,0.09
2023-03-11T01:12:06.194Z,0.09
2023-03-11T01:13:06.599Z,0.09
2023-03-11T01:14:07.360Z,0.09
2023-03-11T01:15:07.831Z,0.09
2023-03-11T01:16:08.438Z,0.09
2023-03-11T01:17:09.078Z,0.09
2023-03-11T01:18:09.576Z,0.09
2023-03-11T01:19:10.101Z,0.09
2023-03-11T01:20:10.591Z,0.09
2023-03-11T01:21:10.667Z,0.09
2023-03-11T01:22:11.227Z,0.09
2023-03-11T01:23:11.209Z,0.09
2023-03-11T01:24:11.829Z,0.09
2023-03-11T01:25:12.351Z,0.13
2023-03-11T01:26:12.441Z,0.09
2023-03-11T01:27:12.975Z,0.13
2023-03-11T01:28:13.513Z,0.09
2023-03-11T01:29:13.935Z,0.09
2023-03-11T01:30:14.456Z,0.09
2023-03-11T01:31:15.255Z,0.09
2023-03-11T01:32:15.397Z,0.09
2023-03-11T01:33:15.429Z,0.09
2023-03-11T01:34:15.975Z,0.09
2023-03-11T01:35:16.528Z,0.09
2023-03-11T01:36:17.142Z,0.09
2023-03-11T01:37:17.698Z,0.09
2023-03-11T01:38:18.150Z,0.09
2023-03-11T01:39:18.512Z,0.09
2023-03-11T01:40:18.980Z,0.13
2023-03-11T01:41:19.458Z,0.09
2023-03-11T01:42:20.314Z,0.09
2023-03-11T01:42:29.083Z,0.09
2023-03-11T01:43:30.004Z,0.09
2023-03-11T01:44:30.450Z,0.09
2023-03-11T01:45:30.927Z,0.09
2023-03-11T01:46:31.104Z,0.09
2023-03-11T01:47:31.326Z,0.09
2023-03-11T01:48:32.068Z,0.09
2023-03-11T01:49:32.650Z,0.09
2023-03-11T01:50:32.808Z,0.09
2023-03-11T01:51:33.294Z,0.09
2023-03-11T01:52:33.813Z,0.09
2023-03-11T01:53:34.545Z,0.09
2023-03-11T01:54:35.264Z,0.09
2023-03-11T01:55:36.012Z,0.09
2023-03-11T01:56:36.592Z,0.09
2023-03-11T01:57:37.066Z,0.09
2023-03-11T01:58:37.704Z,0.09
2023-03-11T01:59:38.150Z,0.09
2023-03-11T02:00:38.650Z,0.09
2023-03-11T02:01:39.146Z,0.09
2023-03-11T02:02:39.822Z,0.09
2023-03-11T02:03:40.203Z,0.09
2023-03-11T02:04:40.673Z,0.13
2023-03-11T02:05:40.863Z,0.09
2023-03-11T02:06:41.318Z,0.09
2023-03-11T02:07:41.736Z,0.13
2023-03-11T02:08:41.787Z,0.13
2023-03-11T02:09:42.312Z,0.09
2023-03-11T02:10:42.983Z,0.09
2023-03-11T02:11:43.511Z,0.09
2023-03-11T02:12:44.124Z,0.09
2023-03-11T02:13:44.932Z,0.09
2023-03-11T02:14:45.398Z,0.09
2023-03-11T02:15:47.077Z,0.09
2023-03-11T02:16:46.876Z,0.09
2023-03-11T02:17:47.601Z,0.09
2023-03-11T02:17:56.432Z,0.09
2023-03-11T02:18:57.777Z,0.09
2023-03-11T02:19:57.336Z,0.09
2023-03-11T02:20:57.804Z,0.13
2023-03-11T02:21:58.452Z,0.09
2023-03-11T02:22:59.054Z,0.13
2023-03-11T02:23:59.453Z,0.09
2023-03-11T02:25:00.102Z,0.13
2023-03-11T02:26:00.514Z,0.13
2023-03-11T02:27:01.374Z,0.13
2023-03-11T02:28:01.892Z,0.13
2023-03-11T02:29:02.678Z,0.13
2023-03-11T02:30:03.126Z,0.13
2023-03-11T02:31:03.598Z,0.13
2023-03-11T02:32:03.766Z,0.09
2023-03-11T02:33:04.299Z,0.09
2023-03-11T02:34:04.742Z,0.13
2023-03-11T02:35:05.429Z,0.13
2023-03-11T02:36:06.081Z,0.13
2023-03-11T02:37:06.673Z,0.09
2023-03-11T02:38:09.878Z,0.13
2023-03-11T02:39:08.028Z,0.13
2023-03-11T02:40:08.480Z,0.09
2023-03-11T02:41:09.285Z,0.09
2023-03-11T02:42:09.764Z,0.09
2023-03-11T02:43:10.522Z,0.09
2023-03-11T02:44:10.829Z,0.09
2023-03-11T02:45:11.279Z,0.13
2023-03-11T02:46:12.108Z,0.09
2023-03-11T02:47:12.728Z,0.09
2023-03-11T02:48:13.295Z,0.09
2023-03-11T02:49:14.032Z,0.09
2023-03-11T02:50:14.141Z,0.09
2023-03-11T02:50:26.856Z,0.13
2023-03-11T02:51:27.312Z,0.09
2023-03-11T02:52:28.103Z,0.09
2023-03-11T02:53:28.628Z,0.13
2023-03-11T02:54:29.047Z,0.09
2023-03-11T02:55:29.702Z,0.09
2023-03-11T02:56:30.539Z,0.09
2023-03-11T02:57:31.516Z,0.09
2023-03-11T02:58:32.154Z,0.09
2023-03-11T02:59:32.896Z,0.13
2023-03-11T03:00:33.538Z,0.09
2023-03-11T03:01:34.148Z,0.13
2023-03-11T03:02:34.975Z,0.09
2023-03-11T03:03:35.630Z,0.09
2023-03-11T03:04:36.195Z,0.09
2023-03-11T03:05:36.720Z,0.09
2023-03-11T03:06:37.376Z,0.09
2023-03-11T03:07:37.896Z,0.09
2023-03-11T03:08:38.437Z,0.09
2023-03-11T03:09:38.911Z,0.09
2023-03-11T03:10:39.379Z,0.09
2023-03-11T03:11:39.881Z,0.09
2023-03-11T03:12:40.342Z,0.09
2023-03-11T03:13:40.966Z,0.09
2023-03-11T03:14:41.468Z,0.09
2023-03-11T03:15:42.002Z,0.13
2023-03-11T03:16:42.945Z,0.09
2023-03-11T03:17:42.953Z,0.09
2023-03-11T03:18:43.281Z,0.09
2023-03-11T03:19:43.734Z,0.09
2023-03-11T03:20:44.257Z,0.09
2023-03-11T03:21:44.762Z,0.09
2023-03-11T03:22:45.339Z,0.09
2023-03-11T03:23:45.618Z,0.09
2023-03-11T03:24:46.158Z,0.09
2023-03-11T03:24:55.444Z,0.09
2023-03-11T03:25:55.929Z,0.09
2023-03-11T03:26:55.973Z,0.09
2023-03-11T03:27:56.595Z,0.09
2023-03-11T03:28:57.121Z,0.09
2023-03-11T03:29:57.982Z,0.09
2023-03-11T03:30:58.532Z,0.09
2023-03-11T03:31:59.095Z,0.09
2023-03-11T03:32:59.478Z,0.09
2023-03-11T03:34:00.486Z,0.09
2023-03-11T03:35:01.334Z,0.09
2023-03-11T03:36:01.804Z,0.09
2023-03-11T03:37:02.507Z,0.09
2023-03-11T03:38:03.393Z,0.09
2023-03-11T03:39:03.812Z,0.09
2023-03-11T03:40:04.464Z,0.09
2023-03-11T03:41:04.892Z,0.09
2023-03-11T03:42:05.318Z,0.09
2023-03-11T03:43:05.830Z,0.09
2023-03-11T03:44:07.672Z,0.13
2023-03-11T03:45:06.928Z,0.09
2023-03-11T03:46:07.012Z,0.09
2023-03-11T03:47:08.639Z,0.09
2023-03-11T03:48:09.679Z,0.09
2023-03-11T03:49:08.135Z,0.09
2023-03-11T03:50:08.622Z,0.09
2023-03-11T03:51:08.973Z,0.09
2023-03-11T03:52:09.537Z,0.09
2023-03-11T03:53:09.965Z,0.09
2023-03-11T03:54:10.414Z,0.09
2023-03-11T03:55:12.286Z,0.09
2023-03-11T03:56:11.488Z,0.09
2023-03-11T03:57:11.904Z,0.09
2023-03-11T03:58:12.823Z,0.09
2023-03-11T03:59:14.609Z,0.13
2023-03-11T04:00:14.072Z,0.09
2023-03-11T04:00:22.758Z,0.09
2023-03-11T04:01:23.183Z,0.09
2023-03-11T04:02:24.101Z,0.09
2023-03-11T04:03:24.945Z,0.09
2023-03-11T04:04:25.482Z,0.09
2023-03-11T04:05:26.209Z,0.09
2023-03-11T04:06:26.954Z,0.09
2023-03-11T04:07:27.373Z,0.09
2023-03-11T04:08:27.875Z,0.09
2023-03-11T04:09:28.671Z,0.09
2023-03-11T04:10:29.202Z,0.09
2023-03-11T04:11:30.033Z,0.09
2023-03-11T04:12:30.690Z,0.09
2023-03-11T04:13:31.272Z,0.09
2023-03-11T04:14:31.813Z,0.09
2023-03-11T04:15:32.442Z,0.09
2023-03-11T04:16:33.402Z,0.09
2023-03-11T04:17:33.802Z,0.09
2023-03-11T04:18:34.450Z,0.09
2023-03-11T04:19:35.171Z,0.13
2023-03-11T04:20:35.976Z,0.09
2023-03-11T04:21:36.523Z,0.09
2023-03-11T04:22:37.172Z,0.13
2023-03-11T04:23:38.078Z,0.09
2023-03-11T04:24:38.154Z,0.13
2023-03-11T04:25:38.721Z,0.09
2023-03-11T04:26:39.161Z,0.09
2023-03-11T04:27:39.583Z,0.09
2023-03-11T04:28:40.503Z,0.09
2023-03-11T04:29:41.033Z,0.09
2023-03-11T04:30:41.757Z,0.09
2023-03-11T04:31:42.182Z,0.09
2023-03-11T04:32:43.088Z,0.09
2023-03-11T04:33:43.843Z,0.09
2023-03-11T04:33:53.595Z,0.09
2023-03-11T04:34:54.426Z,0.13
2023-03-11T04:35:55.030Z,0.09
2023-03-11T04:36:55.585Z,0.09
2023-03-11T04:37:56.086Z,0.09
2023-03-11T04:38:56.340Z,0.09
2023-03-11T04:39:56.947Z,0.09
2023-03-11T04:40:57.538Z,0.09
2023-03-11T04:41:58.140Z,0.09
2023-03-11T04:42:58.845Z,0.09
2023-03-11T04:43:59.374Z,0.09
2023-03-11T04:44:59.816Z,0.09
2023-03-11T04:46:00.415Z,0.09
2023-03-11T04:47:00.786Z,0.09
2023-03-11T04:48:01.478Z,0.09
2023-03-11T04:49:01.874Z,0.13
2023-03-11T04:50:02.555Z,0.09
2023-03-11T04:51:02.996Z,0.09
2023-03-11T04:52:03.597Z,0.13
2023-03-11T04:53:04.039Z,0.09
2023-03-11T04:54:04.642Z,0.13
2023-03-11T04:55:05.169Z,0.13
2023-03-11T04:56:05.898Z,0.09
2023-03-11T04:57:06.299Z,0.09
2023-03-11T04:58:06.780Z,0.13
2023-03-11T04:59:07.296Z,0.13
2023-03-11T05:00:07.839Z,0.13
2023-03-11T05:01:08.798Z,0.13
2023-03-11T05:02:11.731Z,0.13
2023-03-11T05:03:09.977Z,0.13
2023-03-11T05:04:10.696Z,0.13
2023-03-11T05:05:11.160Z,0.13
2023-03-11T05:06:11.714Z,0.13
2023-03-11T05:07:12.190Z,0.13
2023-03-11T05:08:12.783Z,0.13
2023-03-11T05:08:21.558Z,0.09
2023-03-11T05:09:21.687Z,0.13
2023-03-11T05:10:22.289Z,0.13
2023-03-11T05:11:22.743Z,0.13
2023-03-11T05:12:23.321Z,0.13
2023-03-11T05:13:23.774Z,0.13
2023-03-11T05:14:24.156Z,0.13
2023-03-11T05:15:24.551Z,0.13
2023-03-11T05:16:25.159Z,0.13
2023-03-11T05:17:25.609Z,0.13
2023-03-11T05:18:26.213Z,0.13
2023-03-11T05:19:26.856Z,0.13
2023-03-11T05:20:26.893Z,0.06
2023-03-11T05:21:27.697Z,0.13
2023-03-11T05:22:28.150Z,0.13
2023-03-11T05:23:28.729Z,0.13
2023-03-11T05:24:29.308Z,0.13
2023-03-11T05:25:29.898Z,0.13
2023-03-11T05:26:30.330Z,0.13
2023-03-11T05:27:31.146Z,0.13
2023-03-11T05:28:32.053Z,0.13
2023-03-11T05:29:32.455Z,0.13
2023-03-11T05:30:32.921Z,0.13
2023-03-11T05:31:33.474Z,0.13
2023-03-11T05:32:33.946Z,0.13
2023-03-11T05:33:34.366Z,0.13
2023-03-11T05:34:35.032Z,0.13
2023-03-11T05:35:35.539Z,0.13
2023-03-11T05:36:35.993Z,0.13
2023-03-11T05:37:36.873Z,0.13
2023-03-11T05:38:37.529Z,0.13
2023-03-11T05:39:38.517Z,0.16
2023-03-11T05:40:38.293Z,0.16
2023-03-11T05:41:38.812Z,0.16
2023-03-11T05:41:47.568Z,0.16
2023-03-11T05:42:48.061Z,0.13
2023-03-11T05:43:48.476Z,0.16
2023-03-11T05:44:49.016Z,0.16
2023-03-11T05:45:49.580Z,0.16
2023-03-11T05:46:50.436Z,0.16
2023-03-11T05:47:51.207Z,0.16
2023-03-11T05:48:51.667Z,0.16
2023-03-11T05:49:52.228Z,0.16
2023-03-11T05:50:52.601Z,0.16
2023-03-11T05:51:53.140Z,0.16
2023-03-11T05:52:53.326Z,0.16
2023-03-11T05:53:53.784Z,0.16
2023-03-11T05:54:54.403Z,0.23
2023-03-11T05:55:55.170Z,0.16
2023-03-11T05:56:55.633Z,0.16
2023-03-11T05:57:56.129Z,0.16
2023-03-11T05:58:56.460Z,0.16
2023-03-11T05:59:57.297Z,0.27
2023-03-11T06:03:09.403Z,0.27
2023-03-11T06:04:08.725Z,0.16
2023-03-11T06:05:11.061Z,0.23
2023-03-11T06:06:09.851Z,0.23
2023-03-11T06:07:10.465Z,0.16
2023-03-11T06:08:11.183Z,0.23
2023-03-11T06:09:11.706Z,0.23
2023-03-11T06:10:12.455Z,0.23
2023-03-11T06:11:12.841Z,0.23
2023-03-11T06:12:13.376Z,0.27
2023-03-11T06:13:13.878Z,0.27
2023-03-11T06:14:14.544Z,0.27
2023-03-11T06:15:15.299Z,0.27
2023-03-11T06:16:16.134Z,0.27
2023-03-11T06:17:16.504Z,0.27
2023-03-11T06:18:17.999Z,0.27
2023-03-11T06:19:17.389Z,0.27
2023-03-11T06:20:18.935Z,0.27
2023-03-11T06:21:18.566Z,0.27
2023-03-11T06:22:18.972Z,0.27
2023-03-11T06:23:22.164Z,0.31
2023-03-11T06:24:19.625Z,0.27
2023-03-11T06:25:20.225Z,0.31
2023-03-11T06:26:22.253Z,0.34
2023-03-11T06:27:21.460Z,0.31
2023-03-11T06:28:21.759Z,0.31
2023-03-11T06:29:22.396Z,0.34
2023-03-11T06:30:23.219Z,0.31
2023-03-11T06:31:23.475Z,0.31
2023-03-11T06:32:24.078Z,0.31
2023-03-11T06:33:27.525Z,0.34
2023-03-11T06:34:25.226Z,0.34
2023-03-11T06:35:27.339Z,0.34
2023-03-11T06:36:27.777Z,0.38
2023-03-11T06:37:26.094Z,0.38
2023-03-11T06:38:26.939Z,0.38
2023-03-11T06:39:27.821Z,0.38
2023-03-11T06:40:30.674Z,0.38
2023-03-11T06:41:28.483Z,0.34
2023-03-11T06:42:29.239Z,0.38
2023-03-11T06:43:29.778Z,0.31
2023-03-11T06:44:31.502Z,0.31
2023-03-11T06:45:30.723Z,0.31
2023-03-11T06:46:30.724Z,0.34
2023-03-11T06:47:31.275Z,0.34
2023-03-11T06:48:32.279Z,0.34
2023-03-11T06:49:33.029Z,0.34
2023-03-11T06:50:33.506Z,0.34
2023-03-11T06:51:34.322Z,0.34
2023-03-11T06:52:34.345Z,0.34
2023-03-11T06:53:34.508Z,0.38
2023-03-11T06:54:38.303Z,0.34
2023-03-11T06:55:36.229Z,0.34
2023-03-11T06:56:36.770Z,0.34
2023-03-11T06:57:37.338Z,0.38
2023-03-11T06:58:37.855Z,0.38
2023-03-11T06:59:38.426Z,0.38
2023-03-11T07:00:41.061Z,0.34
2023-03-11T07:01:39.802Z,0.38
2023-03-11T07:02:40.713Z,0.38
2023-03-11T07:03:41.501Z,0.38
2023-03-11T07:04:41.886Z,0.38
2023-03-11T07:05:42.433Z,0.38
2023-03-11T07:06:43.001Z,0.38
2023-03-11T07:06:51.802Z,0.38
2023-03-11T07:07:52.267Z,0.38
2023-03-11T07:08:53.028Z,0.38
2023-03-11T07:09:53.946Z,0.38
2023-03-11T07:10:54.573Z,0.38
2023-03-11T07:11:55.170Z,0.45
2023-03-11T07:12:55.746Z,0.41
2023-03-11T07:13:56.402Z,0.41
2023-03-11T07:14:56.736Z,0.41
2023-03-11T07:15:57.326Z,0.41
2023-03-11T07:16:58.107Z,0.41
2023-03-11T07:17:58.735Z,0.45
2023-03-11T07:18:59.248Z,0.45
2023-03-11T07:19:59.724Z,0.45
2023-03-11T07:21:00.393Z,0.45
2023-03-11T07:22:01.045Z,0.45
2023-03-11T07:23:01.972Z,0.48
2023-03-11T07:24:02.432Z,0.45
2023-03-11T07:25:03.035Z,0.45
2023-03-11T07:26:03.820Z,0.45
2023-03-11T07:27:04.854Z,0.48
2023-03-11T07:28:05.358Z,0.45
2023-03-11T07:29:06.122Z,0.52
2023-03-11T07:30:07.726Z,0.45
2023-03-11T07:31:07.532Z,0.52
2023-03-11T07:32:08.210Z,0.52
2023-03-11T07:33:08.677Z,0.45
2023-03-11T07:34:09.127Z,0.45
2023-03-11T07:35:09.641Z,0.45
2023-03-11T07:36:10.392Z,0.45
2023-03-11T07:37:10.438Z,0.45
2023-03-11T07:38:10.956Z,0.48
2023-03-11T07:39:11.734Z,0.48
2023-03-11T07:39:20.777Z,0.45
2023-03-11T07:40:22.241Z,0.48
2023-03-11T07:41:21.936Z,0.48
2023-03-11T07:42:22.367Z,0.52
2023-03-11T07:43:23.133Z,0.55
2023-03-11T07:44:23.601Z,0.48
2023-03-11T07:45:24.249Z,0.48
2023-03-11T07:46:24.911Z,0.48
2023-03-11T07:47:25.412Z,0.48
2023-03-11T07:48:26.039Z,0.59
2023-03-11T07:49:26.396Z,0.59
2023-03-11T07:50:26.898Z,0.48
2023-03-11T07:51:27.386Z,0.48
2023-03-11T07:52:29.272Z,0.48
2023-03-11T07:53:29.040Z,0.52
2023-03-11T07:54:29.088Z,0.45
2023-03-11T07:55:30.065Z,0.48
2023-03-11T07:56:30.700Z,0.48
2023-03-11T07:57:31.230Z,0.48
2023-03-11T07:58:31.726Z,0.48
2023-03-11T07:59:32.443Z,0.48
2023-03-11T08:00:33.234Z,0.48
2023-03-11T08:01:33.780Z,0.48
2023-03-11T08:02:33.865Z,0.52
2023-03-11T08:03:34.848Z,0.55
2023-03-11T08:04:35.381Z,0.59
2023-03-11T08:05:36.245Z,0.59
2023-03-11T08:06:36.778Z,0.59
2023-03-11T08:07:37.294Z,0.66
2023-03-11T08:08:37.991Z,0.66
2023-03-11T08:09:38.542Z,0.59
2023-03-11T08:10:39.130Z,0.59
2023-03-11T08:10:48.299Z,0.55
2023-03-11T08:11:49.774Z,0.55
2023-03-11T08:12:49.368Z,0.48
2023-03-11T08:13:49.862Z,0.48
2023-03-11T08:14:50.657Z,0.45
2023-03-11T08:15:51.434Z,0.45
2023-03-11T08:16:51.713Z,0.45
2023-03-11T08:17:52.291Z,0.45
2023-03-11T08:18:53.169Z,0.45
2023-03-11T08:19:53.755Z,0.48
2023-03-11T08:20:54.364Z,0.55
2023-03-11T08:21:54.874Z,0.66
2023-03-11T08:22:58.248Z,0.70
2023-03-11T08:23:56.092Z,0.80
2023-03-11T08:24:56.854Z,1.09
2023-03-11T08:25:57.570Z,1.20
2023-03-11T08:26:58.188Z,1.12
2023-03-11T08:27:58.935Z,0.98
2023-03-11T08:28:59.683Z,1.09
2023-03-11T08:30:00.239Z,1.23
2023-03-11T08:31:00.972Z,1.23
2023-03-11T08:32:01.580Z,1.23
2023-03-11T08:33:01.960Z,1.20
2023-03-11T08:34:02.249Z,1.09
2023-03-11T08:35:02.798Z,1.02
2023-03-11T08:36:03.410Z,0.84
2023-03-11T08:37:03.937Z,0.91
2023-03-11T08:38:04.635Z,1.12
2023-03-11T08:39:05.482Z,0.91
2023-03-11T08:40:06.194Z,1.16
2023-03-11T08:41:06.708Z,1.12
2023-03-11T08:42:07.340Z,0.80
2023-03-11T08:43:08.056Z,1.02
2023-03-11T08:43:16.764Z,1.09
2023-03-11T08:44:17.271Z,1.02
2023-03-11T08:45:17.678Z,1.02
2023-03-11T08:46:18.116Z,0.91
2023-03-11T08:47:18.629Z,1.20
2023-03-11T08:48:19.112Z,1.20
2023-03-11T08:49:19.579Z,1.12
2023-03-11T08:50:19.651Z,0.91
2023-03-11T08:51:19.995Z,1.02
2023-03-11T08:52:20.500Z,1.02
2023-03-11T08:53:20.679Z,1.16
2023-03-11T08:54:21.282Z,0.80
2023-03-11T08:55:21.794Z,1.12
2023-03-11T08:56:22.358Z,0.98
2023-03-11T08:57:23.019Z,1.09
2023-03-11T08:58:23.306Z,1.09
2023-03-11T08:59:23.837Z,1.02
2023-03-11T09:00:24.435Z,0.98
2023-03-11T09:01:25.035Z,1.02
2023-03-11T09:02:26.728Z,0.95
2023-03-11T09:03:26.444Z,1.09
2023-03-11T09:04:27.048Z,1.12
2023-03-11T09:05:27.624Z,1.09
2023-03-11T09:06:28.239Z,1.09
2023-03-11T09:07:28.841Z,0.48
2023-03-11T09:08:29.607Z,0.45
2023-03-11T09:09:30.070Z,1.12
2023-03-11T09:10:30.488Z,1.12
2023-03-11T09:11:31.353Z,1.16
2023-03-11T09:12:32.198Z,1.16
2023-03-11T09:13:32.881Z,1.16
2023-03-11T09:14:33.354Z,0.70
2023-03-11T09:14:42.662Z,0.59
2023-03-11T09:15:43.310Z,1.09
2023-03-11T09:16:43.846Z,1.16
2023-03-11T09:17:44.436Z,1.23
2023-03-11T09:18:45.051Z,0.70
2023-03-11T09:19:45.619Z,0.70
2023-03-11T09:20:46.229Z,1.30
2023-03-11T09:21:46.986Z,1.27
2023-03-11T09:22:48.562Z,1.12
2023-03-11T09:23:48.112Z,1.12
2023-03-11T09:24:48.682Z,1.02
2023-03-11T09:25:49.513Z,1.12
2023-03-11T09:26:50.352Z,1.12
2023-03-11T09:27:50.807Z,0.91
2023-03-11T09:28:51.713Z,0.66
2023-03-11T09:29:51.664Z,0.59
2023-03-11T09:30:52.243Z,0.55
2023-03-11T09:31:53.123Z,0.52
2023-03-11T09:32:53.777Z,0.52
2023-03-11T09:33:54.264Z,0.48
2023-03-11T09:34:54.812Z,0.59
2023-03-11T09:35:55.759Z,0.59
2023-03-11T09:36:56.176Z,0.66
2023-03-11T09:37:56.699Z,1.20
2023-03-11T09:38:57.313Z,1.23
2023-03-11T09:39:58.006Z,1.27
2023-03-11T09:40:58.148Z,1.27
2023-03-11T09:41:59.406Z,1.02
2023-03-11T09:42:59.322Z,1.30
2023-03-11T09:44:00.159Z,1.37
2023-03-11T09:45:00.834Z,1.37
2023-03-11T09:46:01.629Z,1.41
2023-03-11T09:46:11.357Z,1.41
2023-03-11T09:47:12.249Z,1.41
2023-03-11T09:48:12.776Z,1.34
2023-03-11T09:49:13.271Z,1.41
2023-03-11T09:50:13.755Z,1.16
2023-03-11T09:51:15.688Z,0.84
2023-03-11T09:52:14.659Z,0.80
2023-03-11T09:53:15.511Z,0.80
2023-03-11T09:54:16.087Z,0.91
2023-03-11T09:55:16.613Z,0.98
2023-03-11T09:56:18.577Z,0.84
2023-03-11T09:57:17.246Z,0.80
2023-03-11T09:58:17.887Z,0.80
2023-03-11T09:59:18.566Z,0.77
2023-03-11T10:00:19.501Z,0.73
2023-03-11T10:01:20.171Z,0.73
2023-03-11T10:02:22.342Z,0.70
2023-03-11T10:03:21.182Z,0.73
2023-03-11T10:04:22.737Z,0.73
2023-03-11T10:05:22.406Z,0.77
2023-03-11T10:06:23.078Z,0.77
2023-03-11T10:07:23.726Z,0.73
2023-03-11T10:08:24.613Z,0.66
2023-03-11T10:09:25.436Z,0.70
2023-03-11T10:10:26.074Z,0.77
2023-03-11T10:11:26.562Z,0.70
2023-03-11T10:12:27.529Z,0.66
2023-03-11T10:13:28.037Z,0.70
2023-03-11T10:14:28.737Z,0.73
2023-03-11T10:15:29.338Z,0.73
2023-03-11T10:16:29.968Z,0.70
2023-03-11T10:17:30.556Z,0.70
2023-03-11T10:17:39.329Z,0.66
2023-03-11T10:18:40.118Z,0.66
2023-03-11T10:19:40.768Z,0.66
2023-03-11T10:20:41.676Z,0.59
2023-03-11T10:21:42.339Z,0.59
2023-03-11T10:22:42.347Z,0.66
2023-03-11T10:23:42.636Z,0.59
2023-03-11T10:24:43.517Z,0.59
2023-03-11T10:25:44.089Z,0.66
2023-03-11T10:26:44.116Z,0.66
2023-03-11T10:27:45.110Z,0.66
2023-03-11T10:28:46.332Z,0.66
2023-03-11T10:29:48.288Z,0.66
2023-03-11T10:30:45.532Z,0.70
2023-03-11T10:31:46.116Z,0.66
2023-03-11T10:32:46.947Z,0.66
2023-03-11T10:33:47.988Z,0.66
2023-03-11T10:34:47.982Z,0.59
2023-03-11T10:35:48.724Z,0.55
2023-03-11T10:36:49.245Z,0.55
2023-03-11T10:37:50.270Z,0.55
2023-03-11T10:38:50.569Z,0.55
2023-03-11T10:39:51.256Z,0.59
2023-03-11T10:40:51.449Z,0.55
2023-03-11T10:41:51.886Z,0.59
2023-03-11T10:42:52.452Z,0.59
2023-03-11T10:43:53.264Z,0.59
2023-03-11T10:44:53.360Z,1.37
2023-03-11T10:45:53.944Z,1.41
2023-03-11T10:46:55.092Z,1.30
2023-03-11T10:47:55.207Z,1.55
2023-03-11T10:48:05.380Z,1.34
2023-03-11T10:49:05.415Z,1.62
2023-03-11T10:50:05.988Z,1.69
2023-03-11T10:51:06.001Z,1.69
2023-03-11T10:52:07.603Z,1.69
2023-03-11T10:53:07.336Z,1.66
2023-03-11T10:54:07.334Z,1.77
2023-03-11T10:55:10.159Z,1.41
2023-03-11T10:56:16.125Z,0.88
2023-03-11T10:57:08.629Z,1.02
2023-03-11T10:58:40.702Z,0.88
2023-03-11T11:00:09.372Z,0.80
2023-03-11T11:01:10.094Z,0.84
2023-03-11T11:02:10.933Z,0.88
2023-03-11T11:03:11.872Z,0.80
2023-03-11T11:04:13.734Z,0.77
2023-03-11T11:05:13.261Z,0.80
2023-03-11T11:06:13.423Z,0.73
2023-03-11T11:07:14.855Z,0.73
2023-03-11T11:08:15.407Z,0.73
2023-03-11T11:09:17.953Z,0.77
2023-03-11T11:10:15.327Z,0.70
2023-03-11T11:11:15.517Z,0.70
2023-03-11T11:12:16.027Z,0.70
2023-03-11T11:13:16.879Z,0.66
2023-03-11T11:14:19.619Z,0.73
2023-03-11T11:15:18.781Z,0.73
2023-03-11T11:16:19.387Z,0.73
2023-03-11T11:17:20.004Z,0.66
2023-03-11T11:18:20.635Z,0.73
2023-03-11T11:19:20.726Z,0.73
2023-03-11T11:20:21.284Z,0.77
2023-03-11T11:21:22.232Z,0.70
2023-03-11T11:22:22.947Z,0.70
2023-03-11T11:23:23.693Z,0.70
2023-03-11T11:24:24.266Z,0.70
2023-03-11T11:25:24.566Z,0.77
2023-03-11T11:26:25.400Z,0.80
2023-03-11T11:26:36.770Z,0.80
2023-03-11T11:27:37.287Z,1.30
2023-03-11T11:28:38.263Z,1.52
2023-03-11T11:29:39.160Z,1.59
2023-03-11T11:30:39.752Z,1.52
2023-03-11T11:31:40.241Z,1.44
2023-03-11T11:32:40.971Z,1.62
2023-03-11T11:33:41.652Z,1.62
2023-03-11T11:34:42.147Z,1.66
2023-03-11T11:35:42.554Z,1.66
2023-03-11T11:36:43.172Z,1.62
2023-03-11T11:37:43.828Z,1.41
2023-03-11T11:38:44.297Z,1.44
2023-03-11T11:39:44.845Z,1.62
2023-03-11T11:40:44.893Z,1.80
2023-03-11T11:41:46.501Z,1.69
2023-03-11T11:42:45.402Z,1.84
2023-03-11T11:43:45.615Z,1.94
2023-03-11T11:44:46.278Z,1.98
2023-03-11T11:45:46.437Z,1.94
2023-03-11T11:46:47.064Z,1.87
2023-03-11T11:47:47.630Z,1.73
2023-03-11T11:48:48.413Z,1.84
2023-03-11T11:49:49.009Z,1.12
2023-03-11T11:50:49.576Z,1.02
2023-03-11T11:51:50.139Z,0.98
2023-03-11T11:52:50.823Z,0.88
2023-03-11T11:53:51.392Z,0.88
2023-03-11T11:54:51.916Z,0.91
2023-03-11T11:55:52.713Z,0.80
2023-03-11T11:56:52.894Z,0.80
2023-03-11T11:57:53.469Z,0.80
2023-03-11T11:58:54.235Z,0.84
2023-03-11T11:59:03.504Z,0.77
2023-03-11T12:00:04.226Z,0.77
2023-03-11T12:01:04.856Z,0.80
2023-03-11T12:02:05.548Z,0.80
2023-03-11T12:03:06.141Z,0.77
2023-03-11T12:04:06.746Z,0.77
2023-03-11T12:05:07.379Z,0.77
2023-03-11T12:06:08.025Z,0.80
2023-03-11T12:07:08.574Z,0.88
2023-03-11T12:08:09.232Z,0.91
2023-03-11T12:09:09.918Z,0.91
2023-03-11T12:10:22.309Z,0.88
2023-03-11T12:11:11.521Z,0.84
2023-03-11T12:12:12.155Z,0.80
2023-03-11T12:13:13.028Z,0.88
2023-03-11T12:14:13.827Z,0.95
2023-03-11T12:15:14.470Z,1.16
2023-03-11T12:16:16.305Z,1.30
2023-03-11T12:17:15.976Z,1.30
2023-03-11T12:18:16.520Z,1.20
2023-03-11T12:19:17.144Z,0.95
2023-03-11T12:20:17.788Z,0.98
2023-03-11T12:21:18.519Z,0.91
2023-03-11T12:22:19.088Z,0.77
2023-03-11T12:23:19.689Z,0.77
2023-03-11T12:24:20.630Z,0.73
2023-03-11T12:25:21.581Z,0.77
2023-03-11T12:26:22.226Z,0.77
2023-03-11T12:27:23.074Z,0.80
2023-03-11T12:28:23.580Z,0.80
2023-03-11T12:29:24.232Z,0.84
2023-03-11T12:30:24.908Z,0.98
2023-03-11T12:30:33.660Z,1.02
2023-03-11T12:31:33.975Z,0.84
2023-03-11T12:32:35.918Z,0.84
2023-03-11T12:33:35.745Z,0.80
2023-03-11T12:34:36.019Z,0.77
2023-03-11T12:35:36.729Z,0.80
2023-03-11T12:36:37.558Z,0.80
2023-03-11T12:37:38.378Z,0.77
2023-03-11T12:38:38.389Z,0.77
2023-03-11T12:39:38.927Z,0.77
2023-03-11T12:40:39.038Z,0.77
2023-03-11T12:41:39.098Z,0.80
2023-03-11T12:42:39.805Z,0.80
2023-03-11T12:43:39.863Z,0.80
2023-03-11T12:44:40.389Z,0.80
2023-03-11T12:45:41.329Z,0.80
2023-03-11T12:46:41.570Z,0.80
2023-03-11T12:47:42.202Z,1.12
2023-03-11T12:48:43.960Z,1.44
2023-03-11T12:49:43.084Z,1.30
2023-03-11T12:50:43.243Z,0.84
2023-03-11T12:51:44.155Z,0.95
2023-03-11T12:52:44.665Z,0.95
2023-03-11T12:53:45.301Z,0.91
2023-03-11T12:54:45.848Z,1.23
2023-03-11T12:55:46.806Z,0.95
2023-03-11T12:56:47.722Z,0.95
2023-03-11T12:57:48.368Z,0.88
2023-03-11T12:58:49.229Z,0.95
2023-03-11T12:59:49.800Z,1.20
2023-03-11T13:00:50.314Z,1.20
2023-03-11T13:01:51.042Z,1.12
2023-03-11T13:02:51.300Z,1.41
2023-03-11T13:03:00.019Z,1.30
2023-03-11T13:04:00.617Z,1.02
2023-03-11T13:05:00.921Z,1.23
2023-03-11T13:06:01.440Z,1.09
2023-03-11T13:07:02.043Z,0.98
2023-03-11T13:08:02.516Z,1.02
2023-03-11T13:09:02.958Z,1.09
2023-03-11T13:10:03.633Z,1.12